sensor_id;sensor_type;location;lat;lon;timestamp;P1;durP1;ratioP1;P2;durP2;ratioP2
15706;SDS011;7953;54.302;10.128;2023-03-01T00:01:30;25.17;;;15.30;;
15706;SDS011;7953;54.302;10.128;2023-03-01T00:03:57;23.13;;;15.23;;
15706;SDS011;7953;54.302;10.128;2023-03-01T00:06:25;24.60;;;15.63;;
15706;SDS011;7953;54.302;10.128;2023-03-01T00:08:53;24.73;;;16.97;;
15706;SDS011;7953;54.302;10.128;2023-03-01T00:11:21;28.17;;;16.93;;
15706;SDS011;7953;54.302;10.128;2023-03-01T00:13:51;25.53;;;16.40;;
15706;SDS011;7953;54.302;10.128;2023-03-01T00:16:20;23.73;;;16.13;;
15706;SDS011;7953;54.302;10.128;2023-03-01T00:18:48;26.40;;;16.33;;
15706;SDS011;7953;54.302;10.128;2023-03-01T00:21:15;27.27;;;17.07;;
15706;SDS011;7953;54.302;10.128;2023-03-01T00:23:42;28.47;;;17.80;;
15706;SDS011;7953;54.302;10.128;2023-03-01T00:26:10;31.53;;;19.13;;
15706;SDS011;7953;54.302;10.128;2023-03-01T00:28:38;33.80;;;18.43;;
15706;SDS011;7953;54.302;10.128;2023-03-01T00:31:07;29.37;;;17.63;;
15706;SDS011;7953;54.302;10.128;2023-03-01T00:33:37;29.60;;;17.07;;
15706;SDS011;7953;54.302;10.128;2023-03-01T00:36:05;37.93;;;16.67;;
15706;SDS011;7953;54.302;10.128;2023-03-01T00:38:34;29.73;;;18.40;;
15706;SDS011;7953;54.302;10.128;2023-03-01T00:41:05;29.10;;;18.60;;
15706;SDS011;7953;54.302;10.128;2023-03-01T00:43:33;29.50;;;18.70;;
15706;SDS011;7953;54.302;10.128;2023-03-01T00:46:01;29.93;;;17.40;;
15706;SDS011;7953;54.302;10.128;2023-03-01T00:48:30;33.17;;;16.53;;
15706;SDS011;7953;54.302;10.128;2023-03-01T00:51:03;44.60;;;16.83;;
15706;SDS011;7953;54.302;10.128;2023-03-01T00:53:31;43.87;;;15.70;;
15706;SDS011;7953;54.302;10.128;2023-03-01T00:55:58;39.73;;;15.80;;
15706;SDS011;7953;54.302;10.128;2023-03-01T00:58:25;35.37;;;14.43;;
15706;SDS011;7953;54.302;10.128;2023-03-01T01:00:52;19.13;;;13.57;;
15706;SDS011;7953;54.302;10.128;2023-03-01T01:03:19;29.53;;;14.63;;
15706;SDS011;7953;54.302;10.128;2023-03-01T01:05:48;21.60;;;14.80;;
15706;SDS011;7953;54.302;10.128;2023-03-01T01:08:15;25.40;;;14.37;;
15706;SDS011;7953;54.302;10.128;2023-03-01T01:10:43;26.17;;;14.80;;
15706;SDS011;7953;54.302;10.128;2023-03-01T01:13:10;25.50;;;13.17;;
15706;SDS011;7953;54.302;10.128;2023-03-01T01:15:38;18.93;;;13.40;;
15706;SDS011;7953;54.302;10.128;2023-03-01T01:18:05;20.07;;;13.50;;
15706;SDS011;7953;54.302;10.128;2023-03-01T01:20:34;20.17;;;14.60;;
15706;SDS011;7953;54.302;10.128;2023-03-01T01:23:03;22.70;;;14.30;;
15706;SDS011;7953;54.302;10.128;2023-03-01T01:25:33;21.47;;;15.63;;
15706;SDS011;7953;54.302;10.128;2023-03-01T01:28:02;22.47;;;14.30;;
15706;SDS011;7953;54.302;10.128;2023-03-01T01:30:29;21.43;;;14.47;;
15706;SDS011;7953;54.302;10.128;2023-03-01T01:32:56;21.73;;;14.80;;
15706;SDS011;7953;54.302;10.128;2023-03-01T01:35:23;23.67;;;13.83;;
15706;SDS011;7953;54.302;10.128;2023-03-01T01:37:50;24.07;;;13.43;;
15706;SDS011;7953;54.302;10.128;2023-03-01T01:40:18;15.67;;;12.13;;
15706;SDS011;7953;54.302;10.128;2023-03-01T01:42:45;19.00;;;13.13;;
15706;SDS011;7953;54.302;10.128;2023-03-01T01:45:27;16.80;;;12.20;;
15706;SDS011;7953;54.302;10.128;2023-03-01T01:47:57;18.50;;;13.00;;
15706;SDS011;7953;54.302;10.128;2023-03-01T01:50:28;16.67;;;12.90;;
15706;SDS011;7953;54.302;10.128;2023-03-01T01:53:03;22.17;;;14.40;;
15706;SDS011;7953;54.302;10.128;2023-03-01T01:55:35;17.83;;;12.93;;
15706;SDS011;7953;54.302;10.128;2023-03-01T01:58:06;20.00;;;13.83;;
15706;SDS011;7953;54.302;10.128;2023-03-01T02:00:34;19.80;;;13.07;;
15706;SDS011;7953;54.302;10.128;2023-03-01T02:03:04;16.13;;;11.83;;
15706;SDS011;7953;54.302;10.128;2023-03-01T02:05:37;16.17;;;12.17;;
15706;SDS011;7953;54.302;10.128;2023-03-01T02:08:09;18.27;;;12.03;;
15706;SDS011;7953;54.302;10.128;2023-03-01T02:10:40;15.43;;;11.90;;
15706;SDS011;7953;54.302;10.128;2023-03-01T02:13:07;15.03;;;10.93;;
15706;SDS011;7953;54.302;10.128;2023-03-01T02:15:36;14.63;;;10.83;;
15706;SDS011;7953;54.302;10.128;2023-03-01T02:18:05;14.20;;;11.00;;
15706;SDS011;7953;54.302;10.128;2023-03-01T02:20:34;19.53;;;11.40;;
15706;SDS011;7953;54.302;10.128;2023-03-01T02:23:11;16.10;;;10.40;;
15706;SDS011;7953;54.302;10.128;2023-03-01T02:25:41;15.57;;;11.53;;
15706;SDS011;7953;54.302;10.128;2023-03-01T02:28:25;17.57;;;12.00;;
15706;SDS011;7953;54.302;10.128;2023-03-01T02:30:55;30.37;;;10.87;;
15706;SDS011;7953;54.302;10.128;2023-03-01T02:33:39;22.33;;;11.67;;
15706;SDS011;7953;54.302;10.128;2023-03-01T02:36:08;25.27;;;13.03;;
15706;SDS011;7953;54.302;10.128;2023-03-01T02:38:38;16.83;;;11.53;;
15706;SDS011;7953;54.302;10.128;2023-03-01T02:41:06;14.90;;;11.47;;
15706;SDS011;7953;54.302;10.128;2023-03-01T02:43:36;14.77;;;10.50;;
15706;SDS011;7953;54.302;10.128;2023-03-01T02:46:04;26.73;;;12.33;;
15706;SDS011;7953;54.302;10.128;2023-03-01T02:48:40;19.10;;;12.57;;
15706;SDS011;7953;54.302;10.128;2023-03-01T02:51:11;18.97;;;11.87;;
15706;SDS011;7953;54.302;10.128;2023-03-01T02:53:53;23.53;;;11.57;;
15706;SDS011;7953;54.302;10.128;2023-03-01T02:56:27;18.17;;;11.77;;
15706;SDS011;7953;54.302;10.128;2023-03-01T02:58:57;18.33;;;10.57;;
15706;SDS011;7953;54.302;10.128;2023-03-01T03:01:25;17.63;;;11.57;;
15706;SDS011;7953;54.302;10.128;2023-03-01T03:04:01;26.50;;;12.03;;
15706;SDS011;7953;54.302;10.128;2023-03-01T03:06:29;19.80;;;10.73;;
15706;SDS011;7953;54.302;10.128;2023-03-01T03:08:56;17.03;;;11.03;;
15706;SDS011;7953;54.302;10.128;2023-03-01T03:11:23;19.50;;;11.30;;
15706;SDS011;7953;54.302;10.128;2023-03-01T03:13:50;17.03;;;11.50;;
15706;SDS011;7953;54.302;10.128;2023-03-01T03:16:18;14.37;;;11.00;;
15706;SDS011;7953;54.302;10.128;2023-03-01T03:18:46;36.47;;;12.17;;
15706;SDS011;7953;54.302;10.128;2023-03-01T03:21:13;41.00;;;11.23;;
15706;SDS011;7953;54.302;10.128;2023-03-01T03:23:41;18.97;;;10.93;;
15706;SDS011;7953;54.302;10.128;2023-03-01T03:26:08;18.70;;;12.20;;
15706;SDS011;7953;54.302;10.128;2023-03-01T03:28:38;18.13;;;11.27;;
15706;SDS011;7953;54.302;10.128;2023-03-01T03:31:06;17.23;;;10.70;;
15706;SDS011;7953;54.302;10.128;2023-03-01T03:33:35;15.17;;;10.67;;
15706;SDS011;7953;54.302;10.128;2023-03-01T03:36:02;21.83;;;11.83;;
15706;SDS011;7953;54.302;10.128;2023-03-01T03:38:29;17.60;;;11.13;;
15706;SDS011;7953;54.302;10.128;2023-03-01T03:41:00;38.07;;;12.13;;
15706;SDS011;7953;54.302;10.128;2023-03-01T03:43:29;24.83;;;10.83;;
15706;SDS011;7953;54.302;10.128;2023-03-01T03:45:57;18.77;;;11.10;;
15706;SDS011;7953;54.302;10.128;2023-03-01T03:48:24;27.07;;;11.50;;
15706;SDS011;7953;54.302;10.128;2023-03-01T03:50:54;16.87;;;10.87;;
15706;SDS011;7953;54.302;10.128;2023-03-01T03:53:22;16.90;;;10.90;;
15706;SDS011;7953;54.302;10.128;2023-03-01T03:55:50;40.47;;;12.60;;
15706;SDS011;7953;54.302;10.128;2023-03-01T03:58:18;22.77;;;10.60;;
15706;SDS011;7953;54.302;10.128;2023-03-01T04:00:47;31.53;;;10.87;;
15706;SDS011;7953;54.302;10.128;2023-03-01T04:03:15;13.07;;;8.80;;
15706;SDS011;7953;54.302;10.128;2023-03-01T04:05:44;15.90;;;9.73;;
15706;SDS011;7953;54.302;10.128;2023-03-01T04:08:12;34.87;;;10.77;;
15706;SDS011;7953;54.302;10.128;2023-03-01T04:10:40;15.77;;;11.57;;
15706;SDS011;7953;54.302;10.128;2023-03-01T04:13:10;46.33;;;12.27;;
15706;SDS011;7953;54.302;10.128;2023-03-01T04:15:38;31.13;;;12.43;;
15706;SDS011;7953;54.302;10.128;2023-03-01T04:18:06;21.17;;;10.27;;
15706;SDS011;7953;54.302;10.128;2023-03-01T04:20:34;27.67;;;10.23;;
15706;SDS011;7953;54.302;10.128;2023-03-01T04:23:02;15.37;;;9.77;;
15706;SDS011;7953;54.302;10.128;2023-03-01T04:25:40;17.47;;;9.43;;
15706;SDS011;7953;54.302;10.128;2023-03-01T04:28:08;53.30;;;12.70;;
15706;SDS011;7953;54.302;10.128;2023-03-01T04:30:36;30.67;;;9.83;;
15706;SDS011;7953;54.302;10.128;2023-03-01T04:33:04;13.43;;;9.97;;
15706;SDS011;7953;54.302;10.128;2023-03-01T04:35:31;15.73;;;9.87;;
15706;SDS011;7953;54.302;10.128;2023-03-01T04:38:00;31.20;;;11.80;;
15706;SDS011;7953;54.302;10.128;2023-03-01T04:40:27;47.60;;;11.97;;
15706;SDS011;7953;54.302;10.128;2023-03-01T04:42:55;57.03;;;11.80;;
15706;SDS011;7953;54.302;10.128;2023-03-01T04:45:22;49.60;;;11.63;;
15706;SDS011;7953;54.302;10.128;2023-03-01T04:50:21;22.13;;;9.13;;
15706;SDS011;7953;54.302;10.128;2023-03-01T04:52:49;25.53;;;9.00;;
15706;SDS011;7953;54.302;10.128;2023-03-01T04:55:16;18.87;;;10.83;;
15706;SDS011;7953;54.302;10.128;2023-03-01T04:57:42;13.40;;;9.50;;
15706;SDS011;7953;54.302;10.128;2023-03-01T05:00:12;15.20;;;10.03;;
15706;SDS011;7953;54.302;10.128;2023-03-01T05:02:49;14.07;;;9.03;;
15706;SDS011;7953;54.302;10.128;2023-03-01T05:05:20;15.30;;;9.37;;
15706;SDS011;7953;54.302;10.128;2023-03-01T05:07:50;12.80;;;8.73;;
15706;SDS011;7953;54.302;10.128;2023-03-01T05:10:18;26.10;;;10.27;;
15706;SDS011;7953;54.302;10.128;2023-03-01T05:12:45;32.90;;;10.50;;
15706;SDS011;7953;54.302;10.128;2023-03-01T05:15:14;40.67;;;10.90;;
15706;SDS011;7953;54.302;10.128;2023-03-01T05:17:41;12.60;;;9.57;;
15706;SDS011;7953;54.302;10.128;2023-03-01T05:20:08;21.03;;;10.60;;
15706;SDS011;7953;54.302;10.128;2023-03-01T05:22:36;25.10;;;10.33;;
15706;SDS011;7953;54.302;10.128;2023-03-01T05:25:03;25.50;;;11.37;;
15706;SDS011;7953;54.302;10.128;2023-03-01T05:27:31;21.87;;;9.17;;
15706;SDS011;7953;54.302;10.128;2023-03-01T05:29:58;18.47;;;8.47;;
15706;SDS011;7953;54.302;10.128;2023-03-01T05:32:39;24.77;;;9.37;;
15706;SDS011;7953;54.302;10.128;2023-03-01T05:35:08;43.30;;;10.33;;
15706;SDS011;7953;54.302;10.128;2023-03-01T05:37:38;29.57;;;9.30;;
15706;SDS011;7953;54.302;10.128;2023-03-01T05:40:06;26.20;;;9.27;;
15706;SDS011;7953;54.302;10.128;2023-03-01T05:42:40;20.70;;;9.77;;
15706;SDS011;7953;54.302;10.128;2023-03-01T05:45:08;30.73;;;10.07;;
15706;SDS011;7953;54.302;10.128;2023-03-01T05:47:37;27.50;;;11.03;;
15706;SDS011;7953;54.302;10.128;2023-03-01T05:50:08;28.73;;;9.40;;
15706;SDS011;7953;54.302;10.128;2023-03-01T05:52:37;51.27;;;11.57;;
15706;SDS011;7953;54.302;10.128;2023-03-01T05:55:04;15.07;;;9.13;;
15706;SDS011;7953;54.302;10.128;2023-03-01T05:57:32;20.03;;;9.83;;
15706;SDS011;7953;54.302;10.128;2023-03-01T05:59:59;20.87;;;8.80;;
15706;SDS011;7953;54.302;10.128;2023-03-01T06:02:26;16.90;;;8.97;;
15706;SDS011;7953;54.302;10.128;2023-03-01T06:04:55;15.67;;;9.33;;
15706;SDS011;7953;54.302;10.128;2023-03-01T06:07:22;30.40;;;9.77;;
15706;SDS011;7953;54.302;10.128;2023-03-01T06:09:49;20.70;;;9.67;;
15706;SDS011;7953;54.302;10.128;2023-03-01T06:12:16;23.93;;;10.40;;
15706;SDS011;7953;54.302;10.128;2023-03-01T06:14:44;36.60;;;10.27;;
15706;SDS011;7953;54.302;10.128;2023-03-01T06:17:12;24.57;;;8.63;;
15706;SDS011;7953;54.302;10.128;2023-03-01T06:19:39;20.87;;;9.43;;
15706;SDS011;7953;54.302;10.128;2023-03-01T06:22:08;28.93;;;9.70;;
15706;SDS011;7953;54.302;10.128;2023-03-01T06:24:34;29.20;;;9.73;;
15706;SDS011;7953;54.302;10.128;2023-03-01T06:27:01;17.87;;;9.50;;
15706;SDS011;7953;54.302;10.128;2023-03-01T06:29:28;31.90;;;10.93;;
15706;SDS011;7953;54.302;10.128;2023-03-01T06:31:55;31.80;;;9.67;;
15706;SDS011;7953;54.302;10.128;2023-03-01T06:34:24;25.03;;;12.73;;
15706;SDS011;7953;54.302;10.128;2023-03-01T06:36:51;19.23;;;10.53;;
15706;SDS011;7953;54.302;10.128;2023-03-01T06:39:20;22.43;;;9.50;;
15706;SDS011;7953;54.302;10.128;2023-03-01T06:41:47;20.63;;;12.40;;
15706;SDS011;7953;54.302;10.128;2023-03-01T06:44:14;29.17;;;13.50;;
15706;SDS011;7953;54.302;10.128;2023-03-01T06:46:40;19.70;;;10.73;;
15706;SDS011;7953;54.302;10.128;2023-03-01T06:49:07;22.27;;;9.03;;
15706;SDS011;7953;54.302;10.128;2023-03-01T06:51:35;48.70;;;9.97;;
15706;SDS011;7953;54.302;10.128;2023-03-01T06:54:02;37.30;;;8.37;;
15706;SDS011;7953;54.302;10.128;2023-03-01T06:56:31;11.57;;;7.50;;
15706;SDS011;7953;54.302;10.128;2023-03-01T06:58:59;14.80;;;7.37;;
15706;SDS011;7953;54.302;10.128;2023-03-01T07:01:26;19.27;;;8.37;;
15706;SDS011;7953;54.302;10.128;2023-03-01T07:03:53;22.07;;;8.70;;
15706;SDS011;7953;54.302;10.128;2023-03-01T07:06:20;66.63;;;13.20;;
15706;SDS011;7953;54.302;10.128;2023-03-01T07:08:47;31.47;;;9.77;;
15706;SDS011;7953;54.302;10.128;2023-03-01T07:11:14;39.20;;;9.50;;
15706;SDS011;7953;54.302;10.128;2023-03-01T07:13:42;18.93;;;8.57;;
15706;SDS011;7953;54.302;10.128;2023-03-01T07:16:09;19.00;;;9.47;;
15706;SDS011;7953;54.302;10.128;2023-03-01T07:18:36;19.40;;;8.87;;
15706;SDS011;7953;54.302;10.128;2023-03-01T07:21:03;22.17;;;9.23;;
15706;SDS011;7953;54.302;10.128;2023-03-01T07:23:31;24.13;;;9.33;;
15706;SDS011;7953;54.302;10.128;2023-03-01T07:25:58;22.63;;;9.40;;
15706;SDS011;7953;54.302;10.128;2023-03-01T07:28:25;15.87;;;8.27;;
15706;SDS011;7953;54.302;10.128;2023-03-01T07:30:55;68.77;;;12.40;;
15706;SDS011;7953;54.302;10.128;2023-03-01T07:33:26;16.43;;;9.67;;
15706;SDS011;7953;54.302;10.128;2023-03-01T07:35:55;76.80;;;14.50;;
15706;SDS011;7953;54.302;10.128;2023-03-01T07:38:23;15.87;;;8.47;;
15706;SDS011;7953;54.302;10.128;2023-03-01T07:40:50;21.03;;;9.03;;
15706;SDS011;7953;54.302;10.128;2023-03-01T07:43:17;10.97;;;7.97;;
15706;SDS011;7953;54.302;10.128;2023-03-01T07:45:45;15.43;;;7.40;;
15706;SDS011;7953;54.302;10.128;2023-03-01T07:48:13;15.90;;;8.10;;
15706;SDS011;7953;54.302;10.128;2023-03-01T07:50:40;13.07;;;8.13;;
15706;SDS011;7953;54.302;10.128;2023-03-01T07:53:07;12.57;;;7.60;;
15706;SDS011;7953;54.302;10.128;2023-03-01T07:55:34;13.30;;;7.47;;
15706;SDS011;7953;54.302;10.128;2023-03-01T07:58:01;19.00;;;6.93;;
15706;SDS011;7953;54.302;10.128;2023-03-01T08:00:28;47.10;;;9.40;;
15706;SDS011;7953;54.302;10.128;2023-03-01T08:02:58;11.43;;;6.67;;
15706;SDS011;7953;54.302;10.128;2023-03-01T08:05:26;32.50;;;9.53;;
15706;SDS011;7953;54.302;10.128;2023-03-01T08:07:53;18.53;;;8.37;;
15706;SDS011;7953;54.302;10.128;2023-03-01T08:10:20;14.93;;;8.27;;
15706;SDS011;7953;54.302;10.128;2023-03-01T08:12:47;12.30;;;7.67;;
15706;SDS011;7953;54.302;10.128;2023-03-01T08:15:14;10.03;;;7.50;;
15706;SDS011;7953;54.302;10.128;2023-03-01T08:17:41;12.27;;;7.60;;
15706;SDS011;7953;54.302;10.128;2023-03-01T08:20:08;13.60;;;9.57;;
15706;SDS011;7953;54.302;10.128;2023-03-01T08:22:38;12.17;;;7.90;;
15706;SDS011;7953;54.302;10.128;2023-03-01T08:25:06;16.63;;;8.07;;
15706;SDS011;7953;54.302;10.128;2023-03-01T08:27:33;13.70;;;8.47;;
15706;SDS011;7953;54.302;10.128;2023-03-01T08:30:00;12.67;;;8.00;;
15706;SDS011;7953;54.302;10.128;2023-03-01T08:32:27;12.07;;;8.53;;
15706;SDS011;7953;54.302;10.128;2023-03-01T08:34:53;11.33;;;7.47;;
15706;SDS011;7953;54.302;10.128;2023-03-01T08:37:20;13.67;;;7.50;;
15706;SDS011;7953;54.302;10.128;2023-03-01T08:39:49;9.90;;;7.90;;
15706;SDS011;7953;54.302;10.128;2023-03-01T08:42:16;12.43;;;8.03;;
15706;SDS011;7953;54.302;10.128;2023-03-01T08:44:42;10.97;;;7.77;;
15706;SDS011;7953;54.302;10.128;2023-03-01T08:47:09;12.17;;;8.47;;
15706;SDS011;7953;54.302;10.128;2023-03-01T08:49:36;12.03;;;8.13;;
15706;SDS011;7953;54.302;10.128;2023-03-01T08:52:03;11.40;;;8.13;;
15706;SDS011;7953;54.302;10.128;2023-03-01T08:54:30;11.30;;;8.67;;
15706;SDS011;7953;54.302;10.128;2023-03-01T08:56:58;9.87;;;7.80;;
15706;SDS011;7953;54.302;10.128;2023-03-01T08:59:27;13.50;;;8.37;;
15706;SDS011;7953;54.302;10.128;2023-03-01T09:01:55;12.37;;;8.20;;
15706;SDS011;7953;54.302;10.128;2023-03-01T09:04:22;11.80;;;8.77;;
15706;SDS011;7953;54.302;10.128;2023-03-01T09:06:49;12.17;;;8.67;;
15706;SDS011;7953;54.302;10.128;2023-03-01T09:09:16;10.77;;;8.37;;
15706;SDS011;7953;54.302;10.128;2023-03-01T09:11:44;12.13;;;8.50;;
15706;SDS011;7953;54.302;10.128;2023-03-01T09:14:13;13.87;;;9.53;;
15706;SDS011;7953;54.302;10.128;2023-03-01T09:16:40;13.00;;;9.90;;
15706;SDS011;7953;54.302;10.128;2023-03-01T09:19:07;13.33;;;8.90;;
15706;SDS011;7953;54.302;10.128;2023-03-01T09:21:33;13.60;;;8.90;;
15706;SDS011;7953;54.302;10.128;2023-03-01T09:24:00;11.87;;;9.30;;
15706;SDS011;7953;54.302;10.128;2023-03-01T09:26:27;12.27;;;8.70;;
15706;SDS011;7953;54.302;10.128;2023-03-01T09:28:55;12.87;;;10.20;;
15706;SDS011;7953;54.302;10.128;2023-03-01T09:31:23;16.33;;;10.60;;
15706;SDS011;7953;54.302;10.128;2023-03-01T09:33:51;14.83;;;10.37;;
15706;SDS011;7953;54.302;10.128;2023-03-01T09:36:20;12.57;;;10.43;;
15706;SDS011;7953;54.302;10.128;2023-03-01T09:38:49;15.80;;;11.53;;
15706;SDS011;7953;54.302;10.128;2023-03-01T09:41:22;13.70;;;10.60;;
15706;SDS011;7953;54.302;10.128;2023-03-01T09:44:07;11.93;;;8.60;;
15706;SDS011;7953;54.302;10.128;2023-03-01T09:46:41;12.97;;;9.93;;
15706;SDS011;7953;54.302;10.128;2023-03-01T09:49:11;16.03;;;11.23;;
15706;SDS011;7953;54.302;10.128;2023-03-01T09:51:43;15.23;;;10.37;;
15706;SDS011;7953;54.302;10.128;2023-03-01T09:54:20;15.07;;;10.87;;
15706;SDS011;7953;54.302;10.128;2023-03-01T09:56:50;15.17;;;10.17;;
15706;SDS011;7953;54.302;10.128;2023-03-01T09:59:28;15.13;;;10.73;;
15706;SDS011;7953;54.302;10.128;2023-03-01T10:02:14;14.60;;;10.67;;
15706;SDS011;7953;54.302;10.128;2023-03-01T10:04:51;19.70;;;11.40;;
15706;SDS011;7953;54.302;10.128;2023-03-01T10:07:27;17.23;;;9.60;;
15706;SDS011;7953;54.302;10.128;2023-03-01T10:09:59;13.93;;;10.43;;
15706;SDS011;7953;54.302;10.128;2023-03-01T10:12:31;12.53;;;9.63;;
15706;SDS011;7953;54.302;10.128;2023-03-01T10:15:03;11.50;;;8.50;;
15706;SDS011;7953;54.302;10.128;2023-03-01T10:17:37;11.37;;;8.80;;
15706;SDS011;7953;54.302;10.128;2023-03-01T10:20:13;9.93;;;7.60;;
15706;SDS011;7953;54.302;10.128;2023-03-01T10:22:46;10.57;;;7.63;;
15706;SDS011;7953;54.302;10.128;2023-03-01T10:25:17;9.20;;;7.80;;
15706;SDS011;7953;54.302;10.128;2023-03-01T10:27:59;9.97;;;7.57;;
15706;SDS011;7953;54.302;10.128;2023-03-01T10:30:34;10.83;;;8.53;;
15706;SDS011;7953;54.302;10.128;2023-03-01T10:33:07;12.47;;;9.77;;
15706;SDS011;7953;54.302;10.128;2023-03-01T10:35:43;10.47;;;8.40;;
15706;SDS011;7953;54.302;10.128;2023-03-01T10:38:10;12.07;;;7.87;;
15706;SDS011;7953;54.302;10.128;2023-03-01T10:40:49;11.10;;;7.53;;
15706;SDS011;7953;54.302;10.128;2023-03-01T10:43:17;14.43;;;7.50;;
15706;SDS011;7953;54.302;10.128;2023-03-01T10:45:46;13.87;;;7.13;;
15706;SDS011;7953;54.302;10.128;2023-03-01T10:48:15;8.23;;;6.33;;
15706;SDS011;7953;54.302;10.128;2023-03-01T10:50:44;9.70;;;7.23;;
15706;SDS011;7953;54.302;10.128;2023-03-01T10:53:20;12.77;;;7.37;;
15706;SDS011;7953;54.302;10.128;2023-03-01T10:56:01;7.77;;;6.37;;
15706;SDS011;7953;54.302;10.128;2023-03-01T10:58:32;6.80;;;6.10;;
15706;SDS011;7953;54.302;10.128;2023-03-01T11:01:00;6.90;;;5.50;;
15706;SDS011;7953;54.302;10.128;2023-03-01T11:03:32;8.50;;;6.90;;
15706;SDS011;7953;54.302;10.128;2023-03-01T11:06:02;7.60;;;5.30;;
15706;SDS011;7953;54.302;10.128;2023-03-01T11:08:33;6.07;;;5.10;;
15706;SDS011;7953;54.302;10.128;2023-03-01T11:11:06;9.73;;;5.40;;
15706;SDS011;7953;54.302;10.128;2023-03-01T11:13:50;5.30;;;4.63;;
15706;SDS011;7953;54.302;10.128;2023-03-01T11:16:23;6.80;;;6.10;;
15706;SDS011;7953;54.302;10.128;2023-03-01T11:19:00;9.03;;;5.37;;
15706;SDS011;7953;54.302;10.128;2023-03-01T11:21:41;6.30;;;5.23;;
15706;SDS011;7953;54.302;10.128;2023-03-01T11:24:14;6.20;;;5.00;;
15706;SDS011;7953;54.302;10.128;2023-03-01T11:26:44;6.23;;;4.87;;
15706;SDS011;7953;54.302;10.128;2023-03-01T11:29:16;6.37;;;4.57;;
15706;SDS011;7953;54.302;10.128;2023-03-01T11:31:51;7.63;;;5.87;;
15706;SDS011;7953;54.302;10.128;2023-03-01T11:34:23;5.80;;;5.17;;
15706;SDS011;7953;54.302;10.128;2023-03-01T11:37:03;6.80;;;5.30;;
15706;SDS011;7953;54.302;10.128;2023-03-01T11:39:43;8.70;;;5.90;;
15706;SDS011;7953;54.302;10.128;2023-03-01T11:42:17;11.53;;;6.00;;
15706;SDS011;7953;54.302;10.128;2023-03-01T11:44:47;7.70;;;5.83;;
15706;SDS011;7953;54.302;10.128;2023-03-01T11:47:22;8.20;;;5.47;;
15706;SDS011;7953;54.302;10.128;2023-03-01T11:50:12;6.13;;;5.53;;
15706;SDS011;7953;54.302;10.128;2023-03-01T11:52:48;6.67;;;5.40;;
15706;SDS011;7953;54.302;10.128;2023-03-01T11:55:29;11.83;;;7.60;;
15706;SDS011;7953;54.302;10.128;2023-03-01T11:58:11;8.60;;;6.50;;
15706;SDS011;7953;54.302;10.128;2023-03-01T12:00:53;8.67;;;6.43;;
15706;SDS011;7953;54.302;10.128;2023-03-01T12:06:25;7.17;;;6.17;;
15706;SDS011;7953;54.302;10.128;2023-03-01T12:09:15;14.07;;;7.97;;
15706;SDS011;7953;54.302;10.128;2023-03-01T12:11:58;8.20;;;6.07;;
15706;SDS011;7953;54.302;10.128;2023-03-01T12:14:51;7.10;;;6.13;;
15706;SDS011;7953;54.302;10.128;2023-03-01T12:17:32;9.70;;;7.20;;
15706;SDS011;7953;54.302;10.128;2023-03-01T12:20:31;7.63;;;6.83;;
15706;SDS011;7953;54.302;10.128;2023-03-01T12:26:06;8.80;;;6.77;;
15706;SDS011;7953;54.302;10.128;2023-03-01T12:28:55;9.33;;;7.73;;
15706;SDS011;7953;54.302;10.128;2023-03-01T12:31:39;8.83;;;7.07;;
15706;SDS011;7953;54.302;10.128;2023-03-01T12:37:17;8.40;;;6.80;;
15706;SDS011;7953;54.302;10.128;2023-03-01T12:40:03;8.07;;;6.87;;
15706;SDS011;7953;54.302;10.128;2023-03-01T12:42:44;10.87;;;6.73;;
15706;SDS011;7953;54.302;10.128;2023-03-01T12:45:26;12.00;;;6.73;;
15706;SDS011;7953;54.302;10.128;2023-03-01T12:48:08;9.37;;;6.00;;
15706;SDS011;7953;54.302;10.128;2023-03-01T12:50:47;12.40;;;6.57;;
15706;SDS011;7953;54.302;10.128;2023-03-01T12:53:20;8.87;;;6.30;;
15706;SDS011;7953;54.302;10.128;2023-03-01T12:55:51;8.30;;;6.00;;
15706;SDS011;7953;54.302;10.128;2023-03-01T12:58:22;8.37;;;7.03;;
15706;SDS011;7953;54.302;10.128;2023-03-01T13:01:00;7.43;;;6.53;;
15706;SDS011;7953;54.302;10.128;2023-03-01T13:03:40;8.77;;;7.27;;
15706;SDS011;7953;54.302;10.128;2023-03-01T13:06:19;9.00;;;7.50;;
15706;SDS011;7953;54.302;10.128;2023-03-01T13:08:54;9.10;;;7.67;;
15706;SDS011;7953;54.302;10.128;2023-03-01T13:11:26;13.17;;;8.33;;
15706;SDS011;7953;54.302;10.128;2023-03-01T13:14:00;9.90;;;7.77;;
15706;SDS011;7953;54.302;10.128;2023-03-01T13:17:03;11.03;;;7.97;;
15706;SDS011;7953;54.302;10.128;2023-03-01T13:19:30;10.23;;;7.67;;
15706;SDS011;7953;54.302;10.128;2023-03-01T13:21:57;8.93;;;7.30;;
15706;SDS011;7953;54.302;10.128;2023-03-01T13:24:26;7.83;;;6.93;;
15706;SDS011;7953;54.302;10.128;2023-03-01T13:29:55;10.67;;;8.33;;
15706;SDS011;7953;54.302;10.128;2023-03-01T13:32:25;9.83;;;7.30;;
15706;SDS011;7953;54.302;10.128;2023-03-01T13:34:55;9.67;;;7.60;;
15706;SDS011;7953;54.302;10.128;2023-03-01T13:37:27;7.83;;;7.03;;
15706;SDS011;7953;54.302;10.128;2023-03-01T13:43:30;8.57;;;7.03;;
15706;SDS011;7953;54.302;10.128;2023-03-01T13:45:59;9.80;;;6.97;;
15706;SDS011;7953;54.302;10.128;2023-03-01T13:48:28;11.77;;;8.27;;
15706;SDS011;7953;54.302;10.128;2023-03-01T13:50:58;8.83;;;7.80;;
15706;SDS011;7953;54.302;10.128;2023-03-01T13:53:27;10.43;;;8.10;;
15706;SDS011;7953;54.302;10.128;2023-03-01T13:55:58;11.83;;;7.03;;
15706;SDS011;7953;54.302;10.128;2023-03-01T13:58:30;8.07;;;6.80;;
15706;SDS011;7953;54.302;10.128;2023-03-01T14:01:02;8.40;;;7.53;;
15706;SDS011;7953;54.302;10.128;2023-03-01T14:03:31;8.97;;;7.80;;
15706;SDS011;7953;54.302;10.128;2023-03-01T14:06:01;8.40;;;7.03;;
15706;SDS011;7953;54.302;10.128;2023-03-01T14:08:32;9.27;;;7.50;;
15706;SDS011;7953;54.302;10.128;2023-03-01T14:13:58;10.93;;;8.37;;
15706;SDS011;7953;54.302;10.128;2023-03-01T14:16:38;9.67;;;8.03;;
15706;SDS011;7953;54.302;10.128;2023-03-01T14:19:14;10.20;;;7.50;;
15706;SDS011;7953;54.302;10.128;2023-03-01T14:21:45;9.97;;;7.40;;
15706;SDS011;7953;54.302;10.128;2023-03-01T14:24:16;11.30;;;7.63;;
15706;SDS011;7953;54.302;10.128;2023-03-01T14:26:46;10.67;;;8.27;;
15706;SDS011;7953;54.302;10.128;2023-03-01T14:29:28;10.57;;;8.10;;
15706;SDS011;7953;54.302;10.128;2023-03-01T14:32:11;10.53;;;8.90;;
15706;SDS011;7953;54.302;10.128;2023-03-01T14:34:44;12.23;;;8.83;;
15706;SDS011;7953;54.302;10.128;2023-03-01T14:37:17;11.03;;;8.57;;
15706;SDS011;7953;54.302;10.128;2023-03-01T14:39:46;12.03;;;9.57;;
15706;SDS011;7953;54.302;10.128;2023-03-01T14:42:13;10.80;;;8.33;;
15706;SDS011;7953;54.302;10.128;2023-03-01T14:44:42;10.87;;;9.23;;
15706;SDS011;7953;54.302;10.128;2023-03-01T14:47:11;13.10;;;9.87;;
15706;SDS011;7953;54.302;10.128;2023-03-01T14:49:41;13.47;;;9.30;;
15706;SDS011;7953;54.302;10.128;2023-03-01T14:52:17;12.00;;;8.97;;
15706;SDS011;7953;54.302;10.128;2023-03-01T14:54:46;16.63;;;10.10;;
15706;SDS011;7953;54.302;10.128;2023-03-01T14:57:15;13.77;;;8.67;;
15706;SDS011;7953;54.302;10.128;2023-03-01T14:59:45;13.00;;;10.40;;
15706;SDS011;7953;54.302;10.128;2023-03-01T15:02:13;11.77;;;9.87;;
15706;SDS011;7953;54.302;10.128;2023-03-01T15:04:45;11.93;;;9.50;;
15706;SDS011;7953;54.302;10.128;2023-03-01T15:07:14;12.97;;;9.47;;
15706;SDS011;7953;54.302;10.128;2023-03-01T15:09:42;11.87;;;9.07;;
15706;SDS011;7953;54.302;10.128;2023-03-01T15:12:32;11.17;;;7.63;;